sensor_id;sensor_type;location;lat;lon;timestamp;P1;durP1;ratioP1;P2;durP2;ratioP2
70067;SDS011;57425;51.616;6.680;2022-12-16T00:01:02;52.57;;;17.73;;
70067;SDS011;57425;51.616;6.680;2022-12-16T00:03:29;38.33;;;15.18;;
70067;SDS011;57425;51.616;6.680;2022-12-16T00:05:54;54.23;;;19.20;;
70067;SDS011;57425;51.616;6.680;2022-12-16T00:08:20;54.07;;;16.87;;
70067;SDS011;57425;51.616;6.680;2022-12-16T00:10:45;51.97;;;18.47;;
70067;SDS011;57425;51.616;6.680;2022-12-16T00:13:17;51.17;;;18.40;;
70067;SDS011;57425;51.616;6.680;2022-12-16T00:15:43;48.57;;;18.17;;
70067;SDS011;57425;51.616;6.680;2022-12-16T00:18:10;49.87;;;17.40;;
70067;SDS011;57425;51.616;6.680;2022-12-16T00:20:36;53.00;;;20.97;;
70067;SDS011;57425;51.616;6.680;2022-12-16T00:23:07;46.97;;;16.17;;
70067;SDS011;57425;51.616;6.680;2022-12-16T00:25:32;46.73;;;17.27;;
70067;SDS011;57425;51.616;6.680;2022-12-16T00:27:58;51.27;;;17.57;;
70067;SDS011;57425;51.616;6.680;2022-12-16T00:30:23;47.07;;;17.97;;
70067;SDS011;57425;51.616;6.680;2022-12-16T00:32:49;49.80;;;16.43;;
70067;SDS011;57425;51.616;6.680;2022-12-16T00:35:14;54.77;;;17.67;;
70067;SDS011;57425;51.616;6.680;2022-12-16T00:37:40;44.70;;;16.87;;
70067;SDS011;57425;51.616;6.680;2022-12-16T00:40:06;41.37;;;17.27;;
70067;SDS011;57425;51.616;6.680;2022-12-16T00:42:32;45.00;;;16.50;;
70067;SDS011;57425;51.616;6.680;2022-12-16T00:44:57;44.93;;;14.10;;
70067;SDS011;57425;51.616;6.680;2022-12-16T00:47:23;41.23;;;15.63;;
70067;SDS011;57425;51.616;6.680;2022-12-16T00:49:48;46.17;;;14.77;;
70067;SDS011;57425;51.616;6.680;2022-12-16T00:52:14;44.97;;;17.40;;
70067;SDS011;57425;51.616;6.680;2022-12-16T00:54:41;45.23;;;15.37;;
70067;SDS011;57425;51.616;6.680;2022-12-16T00:57:06;40.73;;;14.37;;
70067;SDS011;57425;51.616;6.680;2022-12-16T00:59:32;44.70;;;15.83;;
70067;SDS011;57425;51.616;6.680;2022-12-16T01:01:57;51.50;;;17.67;;
70067;SDS011;57425;51.616;6.680;2022-12-16T01:04:23;41.43;;;15.67;;
70067;SDS011;57425;51.616;6.680;2022-12-16T01:06:50;41.63;;;16.70;;
70067;SDS011;57425;51.616;6.680;2022-12-16T01:09:16;44.20;;;15.93;;
70067;SDS011;57425;51.616;6.680;2022-12-16T01:11:41;42.03;;;16.03;;
70067;SDS011;57425;51.616;6.680;2022-12-16T01:14:07;44.53;;;16.33;;
70067;SDS011;57425;51.616;6.680;2022-12-16T01:16:33;39.13;;;15.63;;
70067;SDS011;57425;51.616;6.680;2022-12-16T01:18:59;46.70;;;15.90;;
70067;SDS011;57425;51.616;6.680;2022-12-16T01:21:24;47.77;;;15.93;;
70067;SDS011;57425;51.616;6.680;2022-12-16T01:23:50;45.17;;;16.20;;
70067;SDS011;57425;51.616;6.680;2022-12-16T01:26:16;38.47;;;15.37;;
70067;SDS011;57425;51.616;6.680;2022-12-16T01:28:42;43.57;;;15.43;;
70067;SDS011;57425;51.616;6.680;2022-12-16T01:31:09;38.67;;;14.70;;
70067;SDS011;57425;51.616;6.680;2022-12-16T01:33:35;37.50;;;15.97;;
70067;SDS011;57425;51.616;6.680;2022-12-16T01:36:01;38.77;;;15.50;;
70067;SDS011;57425;51.616;6.680;2022-12-16T01:38:31;46.70;;;17.37;;
70067;SDS011;57425;51.616;6.680;2022-12-16T01:40:57;38.40;;;15.00;;
70067;SDS011;57425;51.616;6.680;2022-12-16T01:43:27;38.03;;;14.33;;
70067;SDS011;57425;51.616;6.680;2022-12-16T01:45:59;38.97;;;15.03;;
70067;SDS011;57425;51.616;6.680;2022-12-16T01:49:00;35.67;;;15.77;;
70067;SDS011;57425;51.616;6.680;2022-12-16T01:51:35;43.28;;;15.35;;
70067;SDS011;57425;51.616;6.680;2022-12-16T01:54:15;38.83;;;16.10;;
70067;SDS011;57425;51.616;6.680;2022-12-16T01:56:44;40.37;;;16.17;;
70067;SDS011;57425;51.616;6.680;2022-12-16T01:59:32;41.17;;;13.67;;
70067;SDS011;57425;51.616;6.680;2022-12-16T02:02:01;36.80;;;14.63;;
70067;SDS011;57425;51.616;6.680;2022-12-16T02:04:28;43.33;;;15.90;;
70067;SDS011;57425;51.616;6.680;2022-12-16T02:06:53;40.57;;;15.20;;
70067;SDS011;57425;51.616;6.680;2022-12-16T02:09:20;47.33;;;14.73;;
70067;SDS011;57425;51.616;6.680;2022-12-16T02:31:18;29.70;;;13.33;;
70067;SDS011;57425;51.616;6.680;2022-12-16T02:39:20;43.47;;;15.47;;
70067;SDS011;57425;51.616;6.680;2022-12-16T02:47:17;43.73;;;16.77;;
70067;SDS011;57425;51.616;6.680;2022-12-16T02:49:44;48.57;;;16.30;;
70067;SDS011;57425;51.616;6.680;2022-12-16T02:52:12;41.43;;;14.70;;
70067;SDS011;57425;51.616;6.680;2022-12-16T02:54:38;51.27;;;17.57;;
70067;SDS011;57425;51.616;6.680;2022-12-16T02:57:31;37.57;;;13.97;;
70067;SDS011;57425;51.616;6.680;2022-12-16T03:00:11;40.87;;;14.20;;
70067;SDS011;57425;51.616;6.680;2022-12-16T03:05:16;48.60;;;15.13;;
70067;SDS011;57425;51.616;6.680;2022-12-16T03:07:48;45.67;;;14.57;;
70067;SDS011;57425;51.616;6.680;2022-12-16T03:10:18;48.87;;;16.37;;
70067;SDS011;57425;51.616;6.680;2022-12-16T03:12:45;42.60;;;13.70;;
70067;SDS011;57425;51.616;6.680;2022-12-16T03:15:15;37.33;;;13.93;;
70067;SDS011;57425;51.616;6.680;2022-12-16T03:17:45;37.28;;;14.52;;
70067;SDS011;57425;51.616;6.680;2022-12-16T03:20:17;38.20;;;14.80;;
70067;SDS011;57425;51.616;6.680;2022-12-16T03:22:50;34.90;;;13.40;;
70067;SDS011;57425;51.616;6.680;2022-12-16T03:25:18;47.30;;;15.43;;
70067;SDS011;57425;51.616;6.680;2022-12-16T03:30:29;35.93;;;12.53;;
70067;SDS011;57425;51.616;6.680;2022-12-16T03:33:01;57.67;;;13.43;;
70067;SDS011;57425;51.616;6.680;2022-12-16T03:36:05;42.43;;;13.47;;
70067;SDS011;57425;51.616;6.680;2022-12-16T03:38:25;38.15;;;13.38;;
70067;SDS011;57425;51.616;6.680;2022-12-16T03:40:52;35.80;;;13.20;;
70067;SDS011;57425;51.616;6.680;2022-12-16T03:43:19;36.73;;;13.87;;
70067;SDS011;57425;51.616;6.680;2022-12-16T03:45:46;33.87;;;12.73;;
70067;SDS011;57425;51.616;6.680;2022-12-16T03:48:21;34.97;;;13.00;;
70067;SDS011;57425;51.616;6.680;2022-12-16T03:50:47;36.53;;;13.37;;
70067;SDS011;57425;51.616;6.680;2022-12-16T03:53:13;47.60;;;14.60;;
70067;SDS011;57425;51.616;6.680;2022-12-16T03:55:39;45.60;;;14.53;;
70067;SDS011;57425;51.616;6.680;2022-12-16T03:58:05;39.70;;;14.37;;
70067;SDS011;57425;51.616;6.680;2022-12-16T04:00:31;33.40;;;13.63;;
70067;SDS011;57425;51.616;6.680;2022-12-16T04:02:56;37.60;;;14.67;;
70067;SDS011;57425;51.616;6.680;2022-12-16T04:05:22;33.87;;;11.73;;
70067;SDS011;57425;51.616;6.680;2022-12-16T04:07:48;37.30;;;13.07;;
70067;SDS011;57425;51.616;6.680;2022-12-16T04:10:14;32.87;;;14.13;;
70067;SDS011;57425;51.616;6.680;2022-12-16T04:12:39;35.87;;;13.13;;
70067;SDS011;57425;51.616;6.680;2022-12-16T04:15:24;40.53;;;16.00;;
70067;SDS011;57425;51.616;6.680;2022-12-16T04:18:12;38.53;;;13.77;;
70067;SDS011;57425;51.616;6.680;2022-12-16T04:21:01;41.43;;;14.93;;
70067;SDS011;57425;51.616;6.680;2022-12-16T04:23:50;35.47;;;13.97;;
70067;SDS011;57425;51.616;6.680;2022-12-16T04:26:38;43.47;;;12.33;;
70067;SDS011;57425;51.616;6.680;2022-12-16T04:29:22;37.53;;;13.87;;
70067;SDS011;57425;51.616;6.680;2022-12-16T04:31:48;38.43;;;12.80;;
70067;SDS011;57425;51.616;6.680;2022-12-16T04:34:16;43.80;;;14.70;;
70067;SDS011;57425;51.616;6.680;2022-12-16T04:36:52;37.40;;;14.30;;
70067;SDS011;57425;51.616;6.680;2022-12-16T04:39:37;37.20;;;13.03;;
70067;SDS011;57425;51.616;6.680;2022-12-16T04:45:05;35.17;;;13.13;;
70067;SDS011;57425;51.616;6.680;2022-12-16T04:47:51;32.17;;;12.13;;
70067;SDS011;57425;51.616;6.680;2022-12-16T04:50:37;30.07;;;11.67;;
70067;SDS011;57425;51.616;6.680;2022-12-16T04:53:22;43.43;;;13.77;;
70067;SDS011;57425;51.616;6.680;2022-12-16T04:56:09;32.77;;;12.23;;
70067;SDS011;57425;51.616;6.680;2022-12-16T04:58:54;33.33;;;12.30;;
70067;SDS011;57425;51.616;6.680;2022-12-16T05:01:38;36.97;;;13.03;;
70067;SDS011;57425;51.616;6.680;2022-12-16T05:04:22;32.20;;;13.80;;
70067;SDS011;57425;51.616;6.680;2022-12-16T05:07:06;33.00;;;12.93;;
70067;SDS011;57425;51.616;6.680;2022-12-16T05:09:50;40.87;;;12.80;;
70067;SDS011;57425;51.616;6.680;2022-12-16T05:12:34;42.17;;;13.87;;
70067;SDS011;57425;51.616;6.680;2022-12-16T05:15:18;35.57;;;13.23;;
70067;SDS011;57425;51.616;6.680;2022-12-16T05:20:51;37.97;;;12.33;;
70067;SDS011;57425;51.616;6.680;2022-12-16T05:26:19;34.95;;;11.48;;
70067;SDS011;57425;51.616;6.680;2022-12-16T05:29:03;34.13;;;12.17;;
70067;SDS011;57425;51.616;6.680;2022-12-16T05:34:31;39.00;;;13.32;;
70067;SDS011;57425;51.616;6.680;2022-12-16T05:37:16;34.10;;;12.13;;
70067;SDS011;57425;51.616;6.680;2022-12-16T05:40:00;40.70;;;12.80;;
70067;SDS011;57425;51.616;6.680;2022-12-16T05:42:46;34.10;;;13.50;;
70067;SDS011;57425;51.616;6.680;2022-12-16T05:45:30;34.50;;;13.43;;
70067;SDS011;57425;51.616;6.680;2022-12-16T05:48:14;33.43;;;12.57;;
70067;SDS011;57425;51.616;6.680;2022-12-16T05:50:59;36.93;;;13.53;;
70067;SDS011;57425;51.616;6.680;2022-12-16T05:56:27;33.30;;;12.23;;
70067;SDS011;57425;51.616;6.680;2022-12-16T05:59:11;36.00;;;12.60;;
70067;SDS011;57425;51.616;6.680;2022-12-16T06:01:55;36.47;;;13.23;;
70067;SDS011;57425;51.616;6.680;2022-12-16T06:04:39;32.83;;;13.27;;
70067;SDS011;57425;51.616;6.680;2022-12-16T06:10:08;23.73;;;9.38;;
70067;SDS011;57425;51.616;6.680;2022-12-16T06:12:52;30.60;;;12.13;;
70067;SDS011;57425;51.616;6.680;2022-12-16T06:15:36;33.70;;;12.23;;
70067;SDS011;57425;51.616;6.680;2022-12-16T06:18:20;36.93;;;12.63;;
70067;SDS011;57425;51.616;6.680;2022-12-16T06:21:04;36.17;;;12.47;;
70067;SDS011;57425;51.616;6.680;2022-12-16T06:23:48;32.63;;;11.83;;
70067;SDS011;57425;51.616;6.680;2022-12-16T06:26:32;31.13;;;12.53;;
70067;SDS011;57425;51.616;6.680;2022-12-16T06:29:16;41.20;;;12.10;;
70067;SDS011;57425;51.616;6.680;2022-12-16T06:32:01;31.97;;;12.83;;
70067;SDS011;57425;51.616;6.680;2022-12-16T06:34:45;43.40;;;15.60;;
70067;SDS011;57425;51.616;6.680;2022-12-16T06:37:29;32.90;;;13.77;;
70067;SDS011;57425;51.616;6.680;2022-12-16T06:42:57;42.60;;;13.48;;
70067;SDS011;57425;51.616;6.680;2022-12-16T06:48:25;31.77;;;11.25;;
70067;SDS011;57425;51.616;6.680;2022-12-16T06:53:53;27.02;;;12.45;;
70067;SDS011;57425;51.616;6.680;2022-12-16T06:56:37;52.67;;;14.13;;
70067;SDS011;57425;51.616;6.680;2022-12-16T07:02:07;31.30;;;13.07;;
70067;SDS011;57425;51.616;6.680;2022-12-16T07:04:55;32.50;;;10.83;;
70067;SDS011;57425;51.616;6.680;2022-12-16T07:07:45;37.67;;;11.97;;
70067;SDS011;57425;51.616;6.680;2022-12-16T07:10:30;37.13;;;13.77;;
70067;SDS011;57425;51.616;6.680;2022-12-16T07:13:14;31.87;;;11.70;;
70067;SDS011;57425;51.616;6.680;2022-12-16T07:18:44;24.77;;;10.23;;
70067;SDS011;57425;51.616;6.680;2022-12-16T07:21:28;37.63;;;14.30;;
70067;SDS011;57425;51.616;6.680;2022-12-16T07:24:13;35.83;;;13.70;;
70067;SDS011;57425;51.616;6.680;2022-12-16T07:26:57;41.40;;;14.37;;
70067;SDS011;57425;51.616;6.680;2022-12-16T07:32:25;35.22;;;13.20;;
70067;SDS011;57425;51.616;6.680;2022-12-16T07:35:09;44.20;;;14.97;;
70067;SDS011;57425;51.616;6.680;2022-12-16T07:40:37;24.88;;;10.75;;
70067;SDS011;57425;51.616;6.680;2022-12-16T07:43:21;39.43;;;14.10;;
70067;SDS011;57425;51.616;6.680;2022-12-16T07:46:05;27.13;;;11.57;;
70067;SDS011;57425;51.616;6.680;2022-12-16T07:51:34;31.73;;;12.70;;
70067;SDS011;57425;51.616;6.680;2022-12-16T07:54:18;31.47;;;11.37;;
70067;SDS011;57425;51.616;6.680;2022-12-16T07:57:02;35.97;;;11.43;;
70067;SDS011;57425;51.616;6.680;2022-12-16T07:59:47;31.30;;;11.37;;
70067;SDS011;57425;51.616;6.680;2022-12-16T08:02:31;30.43;;;11.23;;
70067;SDS011;57425;51.616;6.680;2022-12-16T08:05:15;35.83;;;13.03;;
70067;SDS011;57425;51.616;6.680;2022-12-16T08:07:59;30.60;;;11.90;;
70067;SDS011;57425;51.616;6.680;2022-12-16T08:10:43;37.50;;;12.37;;
70067;SDS011;57425;51.616;6.680;2022-12-16T08:16:12;39.13;;;12.02;;
70067;SDS011;57425;51.616;6.680;2022-12-16T08:18:56;36.23;;;13.13;;
70067;SDS011;57425;51.616;6.680;2022-12-16T08:21:40;44.97;;;13.93;;
70067;SDS011;57425;51.616;6.680;2022-12-16T08:24:24;36.43;;;13.17;;
70067;SDS011;57425;51.616;6.680;2022-12-16T08:27:08;45.67;;;12.63;;
70067;SDS011;57425;51.616;6.680;2022-12-16T08:29:52;41.87;;;12.73;;
70067;SDS011;57425;51.616;6.680;2022-12-16T08:32:36;31.23;;;12.10;;
70067;SDS011;57425;51.616;6.680;2022-12-16T08:38:05;53.40;;;15.75;;
70067;SDS011;57425;51.616;6.680;2022-12-16T08:43:33;34.33;;;10.70;;
70067;SDS011;57425;51.616;6.680;2022-12-16T08:46:18;39.37;;;12.80;;
70067;SDS011;57425;51.616;6.680;2022-12-16T08:49:03;36.87;;;13.20;;
70067;SDS011;57425;51.616;6.680;2022-12-16T08:51:48;36.43;;;13.40;;
70067;SDS011;57425;51.616;6.680;2022-12-16T08:54:32;39.87;;;13.33;;
70067;SDS011;57425;51.616;6.680;2022-12-16T08:57:16;43.60;;;13.67;;
70067;SDS011;57425;51.616;6.680;2022-12-16T09:02:44;39.08;;;14.07;;
70067;SDS011;57425;51.616;6.680;2022-12-16T09:05:29;36.80;;;12.50;;
70067;SDS011;57425;51.616;6.680;2022-12-16T09:11:00;29.02;;;10.98;;
70067;SDS011;57425;51.616;6.680;2022-12-16T09:13:45;41.40;;;12.43;;
70067;SDS011;57425;51.616;6.680;2022-12-16T09:16:29;43.23;;;14.03;;
70067;SDS011;57425;51.616;6.680;2022-12-16T09:19:13;35.47;;;12.90;;
70067;SDS011;57425;51.616;6.680;2022-12-16T09:24:41;42.50;;;13.10;;
70067;SDS011;57425;51.616;6.680;2022-12-16T09:27:25;30.97;;;12.27;;
70067;SDS011;57425;51.616;6.680;2022-12-16T09:30:09;43.53;;;16.23;;
70067;SDS011;57425;51.616;6.680;2022-12-16T09:32:54;37.03;;;14.00;;
70067;SDS011;57425;51.616;6.680;2022-12-16T09:35:38;48.43;;;15.83;;
70067;SDS011;57425;51.616;6.680;2022-12-16T09:53:36;45.43;;;13.57;;
70067;SDS011;57425;51.616;6.680;2022-12-16T09:56:30;65.00;;;21.03;;
70067;SDS011;57425;51.616;6.680;2022-12-16T09:59:18;47.77;;;17.47;;
70067;SDS011;57425;51.616;6.680;2022-12-16T10:02:13;56.33;;;18.77;;
70067;SDS011;57425;51.616;6.680;2022-12-16T10:05:00;54.17;;;15.67;;
70067;SDS011;57425;51.616;6.680;2022-12-16T10:07:50;42.57;;;15.63;;
70067;SDS011;57425;51.616;6.680;2022-12-16T10:22:42;38.70;;;13.87;;
70067;SDS011;57425;51.616;6.680;2022-12-16T10:28:37;38.27;;;13.87;;
70067;SDS011;57425;51.616;6.680;2022-12-16T10:31:25;49.60;;;15.93;;
70067;SDS011;57425;51.616;6.680;2022-12-16T10:34:15;42.17;;;15.23;;
70067;SDS011;57425;51.616;6.680;2022-12-16T10:37:02;40.53;;;14.70;;
70067;SDS011;57425;51.616;6.680;2022-12-16T10:39:54;44.07;;;14.30;;
70067;SDS011;57425;51.616;6.680;2022-12-16T10:42:49;45.58;;;15.68;;
70067;SDS011;57425;51.616;6.680;2022-12-16T10:45:45;44.57;;;15.77;;
70067;SDS011;57425;51.616;6.680;2022-12-16T10:48:35;36.13;;;13.53;;
70067;SDS011;57425;51.616;6.680;2022-12-16T10:51:21;42.13;;;14.70;;
70067;SDS011;57425;51.616;6.680;2022-12-16T10:57:13;44.53;;;14.07;;
70067;SDS011;57425;51.616;6.680;2022-12-16T11:00:09;51.57;;;13.70;;
70067;SDS011;57425;51.616;6.680;2022-12-16T11:06:16;33.63;;;14.77;;
70067;SDS011;57425;51.616;6.680;2022-12-16T11:09:13;39.33;;;14.50;;
70067;SDS011;57425;51.616;6.680;2022-12-16T11:12:33;43.43;;;15.60;;
70067;SDS011;57425;51.616;6.680;2022-12-16T11:18:05;35.13;;;14.03;;
70067;SDS011;57425;51.616;6.680;2022-12-16T11:21:15;37.20;;;13.67;;
70067;SDS011;57425;51.616;6.680;2022-12-16T11:24:14;35.47;;;13.93;;
70067;SDS011;57425;51.616;6.680;2022-12-16T11:27:01;47.50;;;13.63;;
70067;SDS011;57425;51.616;6.680;2022-12-16T11:30:10;36.63;;;12.27;;
70067;SDS011;57425;51.616;6.680;2022-12-16T11:36:25;45.20;;;14.70;;
70067;SDS011;57425;51.616;6.680;2022-12-16T11:39:16;33.00;;;12.80;;
70067;SDS011;57425;51.616;6.680;2022-12-16T11:42:02;33.20;;;12.30;;
70067;SDS011;57425;51.616;6.680;2022-12-16T11:44:50;38.17;;;13.27;;
70067;SDS011;57425;51.616;6.680;2022-12-16T11:56:19;39.07;;;13.53;;
70067;SDS011;57425;51.616;6.680;2022-12-16T12:05:17;43.20;;;14.20;;
70067;SDS011;57425;51.616;6.680;2022-12-16T12:08:12;42.67;;;15.13;;
70067;SDS011;57425;51.616;6.680;2022-12-16T12:11:10;36.73;;;15.73;;
70067;SDS011;57425;51.616;6.680;2022-12-16T12:14:16;41.58;;;14.43;;
70067;SDS011;57425;51.616;6.680;2022-12-16T12:20:17;45.03;;;14.00;;
70067;SDS011;57425;51.616;6.680;2022-12-16T12:23:17;52.30;;;15.00;;
70067;SDS011;57425;51.616;6.680;2022-12-16T12:26:20;43.30;;;15.90;;
70067;SDS011;57425;51.616;6.680;2022-12-16T12:35:20;37.50;;;13.73;;
70067;SDS011;57425;51.616;6.680;2022-12-16T12:38:42;37.20;;;14.20;;
70067;SDS011;57425;51.616;6.680;2022-12-16T12:42:05;59.83;;;17.20;;
70067;SDS011;57425;51.616;6.680;2022-12-16T12:48:14;47.23;;;15.53;;
70067;SDS011;57425;51.616;6.680;2022-12-16T12:51:05;52.23;;;17.20;;
70067;SDS011;57425;51.616;6.680;2022-12-16T12:54:09;54.33;;;15.90;;
70067;SDS011;57425;51.616;6.680;2022-12-16T12:57:08;44.27;;;14.33;;
70067;SDS011;57425;51.616;6.680;2022-12-16T13:00:02;38.00;;;16.23;;
70067;SDS011;57425;51.616;6.680;2022-12-16T13:05:46;46.07;;;16.70;;
70067;SDS011;57425;51.616;6.680;2022-12-16T13:08:32;46.20;;;15.50;;
70067;SDS011;57425;51.616;6.680;2022-12-16T13:11:27;53.47;;;17.50;;
70067;SDS011;57425;51.616;6.680;2022-12-16T13:17:17;34.77;;;13.73;;
70067;SDS011;57425;51.616;6.680;2022-12-16T13:20:04;37.87;;;15.63;;
70067;SDS011;57425;51.616;6.680;2022-12-16T13:23:22;37.57;;;15.67;;
70067;SDS011;57425;51.616;6.680;2022-12-16T13:26:18;46.33;;;16.77;;
70067;SDS011;57425;51.616;6.680;2022-12-16T13:32:03;40.63;;;14.17;;
70067;SDS011;57425;51.616;6.680;2022-12-16T13:35:00;45.53;;;15.77;;
70067;SDS011;57425;51.616;6.680;2022-12-16T13:40:53;42.37;;;17.17;;
70067;SDS011;57425;51.616;6.680;2022-12-16T13:43:50;50.13;;;16.13;;
70067;SDS011;57425;51.616;6.680;2022-12-16T13:52:20;40.47;;;15.83;;
70067;SDS011;57425;51.616;6.680;2022-12-16T13:55:13;42.87;;;14.80;;
70067;SDS011;57425;51.616;6.680;2022-12-16T13:58:03;48.30;;;16.33;;
70067;SDS011;57425;51.616;6.680;2022-12-16T14:00:55;43.60;;;15.37;;
70067;SDS011;57425;51.616;6.680;2022-12-16T14:03:55;41.97;;;16.67;;
70067;SDS011;57425;51.616;6.680;2022-12-16T14:06:41;43.60;;;14.90;;
70067;SDS011;57425;51.616;6.680;2022-12-16T14:12:39;42.27;;;15.03;;
70067;SDS011;57425;51.616;6.680;2022-12-16T14:18:57;58.37;;;15.47;;
70067;SDS011;57425;51.616;6.680;2022-12-16T14:21:49;32.23;;;12.43;;
70067;SDS011;57425;51.616;6.680;2022-12-16T14:24:40;39.43;;;15.20;;
70067;SDS011;57425;51.616;6.680;2022-12-16T14:27:25;39.20;;;15.43;;
70067;SDS011;57425;51.616;6.680;2022-12-16T14:30:27;44.60;;;15.10;;
70067;SDS011;57425;51.616;6.680;2022-12-16T14:36:25;40.30;;;14.60;;
70067;SDS011;57425;51.616;6.680;2022-12-16T14:39:11;41.10;;;15.90;;
70067;SDS011;57425;51.616;6.680;2022-12-16T14:42:02;40.80;;;14.60;;
70067;SDS011;57425;51.616;6.680;2022-12-16T14:44:57;46.83;;;16.33;;
70067;SDS011;57425;51.616;6.680;2022-12-16T14:47:45;37.40;;;13.87;;
70067;SDS011;57425;51.616;6.680;2022-12-16T14:50:29;54.07;;;19.33;;
70067;SDS011;57425;51.616;6.680;2022-12-16T15:01:54;49.30;;;17.70;;
70067;SDS011;57425;51.616;6.680;2022-12-16T15:04:40;50.03;;;17.53;;
70067;SDS011;57425;51.616;6.680;2022-12-16T15:07:25;45.87;;;16.60;;
70067;SDS011;57425;51.616;6.680;2022-12-16T15:10:18;43.93;;;15.97;;
70067;SDS011;57425;51.616;6.680;2022-12-16T15:13:13;59.13;;;17.30;;
70067;SDS011;57425;51.616;6.680;2022-12-16T15:15:59;64.77;;;19.43;;
70067;SDS011;57425;51.616;6.680;2022-12-16T15:18:44;54.27;;;19.83;;
70067;SDS011;57425;51.616;6.680;2022-12-16T15:21:33;46.27;;;16.47;;
70067;SDS011;57425;51.616;6.680;2022-12-16T15:24:19;47.90;;;17.03;;
70067;SDS011;57425;51.616;6.680;2022-12-16T15:29:56;61.80;;;18.60;;
70067;SDS011;57425;51.616;6.680;2022-12-16T15:32:51;52.50;;;16.80;;
70067;SDS011;57425;51.616;6.680;2022-12-16T15:35:36;42.60;;;16.13;;
70067;SDS011;57425;51.616;6.680;2022-12-16T15:38:22;53.20;;;16.93;;
70067;SDS011;57425;51.616;6.680;2022-12-16T15:41:19;55.80;;;17.57;;
70067;SDS011;57425;51.616;6.680;2022-12-16T15:44:22;51.63;;;16.47;;
70067;SDS011;57425;51.616;6.680;2022-12-16T15:50:03;52.93;;;16.73;;
70067;SDS011;57425;51.616;6.680;2022-12-16T15:52:48;41.60;;;16.70;;
70067;SDS011;57425;51.616;6.680;2022-12-16T15:55:53;51.07;;;17.67;;
70067;SDS011;57425;51.616;6.680;2022-12-16T15:58:38;46.93;;;16.90;;
70067;SDS011;57425;51.616;6.680;2022-12-16T16:01:24;45.17;;;15.90;;
70067;SDS011;57425;51.616;6.680;2022-12-16T16:04:28;49.00;;;16.53;;
70067;SDS011;57425;51.616;6.680;2022-12-16T16:07:15;48.37;;;17.87;;
70067;SDS011;57425;51.616;6.680;2022-12-16T16:10:09;51.63;;;19.07;;
70067;SDS011;57425;51.616;6.680;2022-12-16T16:12:57;64.10;;;19.73;;
70067;SDS011;57425;51.616;6.680;2022-12-16T16:15:41;60.37;;;20.07;;
70067;SDS011;57425;51.616;6.680;2022-12-16T16:18:25;57.00;;;18.33;;
70067;SDS011;57425;51.616;6.680;2022-12-16T16:21:09;51.13;;;18.20;;
70067;SDS011;57425;51.616;6.680;2022-12-16T16:23:53;58.90;;;21.17;;
70067;SDS011;57425;51.616;6.680;2022-12-16T16:29:22;45.35;;;18.52;;
70067;SDS011;57425;51.616;6.680;2022-12-16T16:32:06;50.30;;;18.47;;
70067;SDS011;57425;51.616;6.680;2022-12-16T16:34:52;56.93;;;18.37;;
70067;SDS011;57425;51.616;6.680;2022-12-16T16:37:36;51.07;;;19.63;;
70067;SDS011;57425;51.616;6.680;2022-12-16T16:40:27;59.43;;;18.80;;
70067;SDS011;57425;51.616;6.680;2022-12-16T16:43:18;48.43;;;18.30;;
70067;SDS011;57425;51.616;6.680;2022-12-16T16:46:06;48.10;;;19.60;;
70067;SDS011;57425;51.616;6.680;2022-12-16T16:48:59;48.03;;;16.90;;
70067;SDS011;57425;51.616;6.680;2022-12-16T16:51:43;48.57;;;17.80;;
70067;SDS011;57425;51.616;6.680;2022-12-16T16:54:27;48.57;;;17.33;;
70067;SDS011;57425;51.616;6.680;2022-12-16T16:57:11;56.03;;;18.57;;
70067;SDS011;57425;51.616;6.680;2022-12-16T16:59:55;47.67;;;16.33;;
70067;SDS011;57425;51.616;6.680;2022-12-16T17:02:39;51.72;;;16.70;;
70067;SDS011;57425;51.616;6.680;2022-12-16T17:05:23;48.63;;;18.47;;
70067;SDS011;57425;51.616;6.680;2022-12-16T17:10:51;57.85;;;17.33;;
70067;SDS011;57425;51.616;6.680;2022-12-16T17:13:35;49.67;;;17.97;;
70067;SDS011;57425;51.616;6.680;2022-12-16T17:16:21;50.63;;;18.13;;
70067;SDS011;57425;51.616;6.680;2022-12-16T17:19:07;63.37;;;19.53;;
70067;SDS011;57425;51.616;6.680;2022-12-16T17:21:51;54.50;;;19.27;;
70067;SDS011;57425;51.616;6.680;2022-12-16T17:24:35;60.50;;;20.57;;
70067;SDS011;57425;51.616;6.680;2022-12-16T17:27:21;58.87;;;22.10;;
70067;SDS011;57425;51.616;6.680;2022-12-16T17:30:13;71.80;;;22.27;;
70067;SDS011;57425;51.616;6.680;2022-12-16T17:33:06;66.87;;;20.17;;
70067;SDS011;57425;51.616;6.680;2022-12-16T17:35:51;55.10;;;22.00;;
70067;SDS011;57425;51.616;6.680;2022-12-16T17:38:39;63.93;;;21.33;;
70067;SDS011;57425;51.616;6.680;2022-12-16T17:41:26;61.90;;;22.20;;
70067;SDS011;57425;51.616;6.680;2022-12-16T17:44:11;53.70;;;18.43;;
70067;SDS011;57425;51.616;6.680;2022-12-16T17:46:55;70.27;;;18.37;;
70067;SDS011;57425;51.616;6.680;2022-12-16T17:49:39;63.03;;;22.23;;
70067;SDS011;57425;51.616;6.680;2022-12-16T17:52:24;85.23;;;22.47;;
70067;SDS011;57425;51.616;6.680;2022-12-16T17:55:08;49.73;;;18.63;;
70067;SDS011;57425;51.616;6.680;2022-12-16T17:57:53;88.50;;;22.87;;
70067;SDS011;57425;51.616;6.680;2022-12-16T18:00:37;73.40;;;21.90;;
70067;SDS011;57425;51.616;6.680;2022-12-16T18:03:22;70.10;;;22.43;;
70067;SDS011;57425;51.616;6.680;2022-12-16T18:06:06;67.50;;;22.53;;
70067;SDS011;57425;51.616;6.680;2022-12-16T18:08:52;78.27;;;25.23;;
70067;SDS011;57425;51.616;6.680;2022-12-16T18:11:36;75.27;;;21.20;;
70067;SDS011;57425;51.616;6.680;2022-12-16T18:14:20;81.90;;;22.80;;
70067;SDS011;57425;51.616;6.680;2022-12-16T18:17:04;70.57;;;20.33;;
70067;SDS011;57425;51.616;6.680;2022-12-16T18:19:50;95.73;;;25.70;;
70067;SDS011;57425;51.616;6.680;2022-12-16T18:22:34;98.93;;;22.30;;
70067;SDS011;57425;51.616;6.680;2022-12-16T18:25:19;108.80;;;25.97;;
70067;SDS011;57425;51.616;6.680;2022-12-16T18:28:03;76.03;;;24.47;;
70067;SDS011;57425;51.616;6.680;2022-12-16T18:30:48;92.70;;;27.17;;
70067;SDS011;57425;51.616;6.680;2022-12-16T18:33:32;89.97;;;24.47;;
70067;SDS011;57425;51.616;6.680;2022-12-16T18:36:16;89.23;;;25.13;;
70067;SDS011;57425;51.616;6.680;2022-12-16T18:39:00;78.27;;;25.60;;
70067;SDS011;57425;51.616;6.680;2022-12-16T18:41:45;95.10;;;26.07;;
70067;SDS011;57425;51.616;6.680;2022-12-16T18:44:29;78.40;;;23.90;;
70067;SDS011;57425;51.616;6.680;2022-12-16T18:47:14;103.17;;;27.17;;
70067;SDS011;57425;51.616;6.680;2022-12-16T18:49:59;92.53;;;26.63;;
70067;SDS011;57425;51.616;6.680;2022-12-16T18:52:44;102.70;;;26.63;;
70067;SDS011;57425;51.616;6.680;2022-12-16T18:55:28;77.03;;;22.97;;
70067;SDS011;57425;51.616;6.680;2022-12-16T18:58:12;76.03;;;23.80;;
70067;SDS011;57425;51.616;6.680;2022-12-16T19:01:01;80.03;;;24.10;;
70067;SDS011;57425;51.616;6.680;2022-12-16T19:03:46;96.53;;;24.50;;
70067;SDS011;57425;51.616;6.680;2022-12-16T19:06:31;76.27;;;22.77;;
70067;SDS011;57425;51.616;6.680;2022-12-16T19:09:15;72.57;;;19.83;;
70067;SDS011;57425;51.616;6.680;2022-12-16T19:11:59;61.17;;;20.10;;
70067;SDS011;57425;51.616;6.680;2022-12-16T19:14:43;63.47;;;19.77;;
70067;SDS011;57425;51.616;6.680;2022-12-16T19:17:27;64.57;;;19.33;;
70067;SDS011;57425;51.616;6.680;2022-12-16T19:20:11;60.57;;;18.67;;